Terminal Aerodrome Forecast
Issued by NWS

Home | Current Version | Previous Version | Text Only | Print | Product List | Glossary On
Versions: 1 2 3 4 5 6 7 8 9 10 11 12 13 14 15 16 17 18
180
FTUS44 KLZK 271730
TAFPBF
TAF
KPBF 271730Z 2718/2818 21015G22KT P6SM VCSH BKN030
     FM272030 25010G20KT P6SM BKN030
     FM272200 25010KT P6SM BKN040
     FM280100 VRB03KT P6SM BKN250
     FM281400 06006KT P6SM SCT015 BKN250=

USA.gov is the U.S. government's official web portal to all federal, state and local government web resources and services.